SBCFSBRJ

Guest
Details From SBCF - Tancredo Neves
To SBRJ - Santos-Dumont
Flight Number -
Tags generated
Created
Modified
Stats Distance 203 nm / 376 km
Max Altitude 21,300 ft / 6,492 m
Waypoints 3
Social Downloads 2
Likes 0
Share VATSIM

Download

Looking for another format? Having issues loading an existing format? Contact us
Advertisement - Login to hide

Notes

Basic altitude profile: - Ascent Rate: 2500ft/min - Ascent Speed: 250kts - Cruise Altitude: 34000ft - Cruise Speed: 420kts - Descent Rate: 1500ft/min - Descent Speed: 250kts

Route

SBCF BBC SBRJ

ID Type Via Altitude Latitude Longitude Leg Dist Tot Dist Heading (true) Name
O SBCF APT - 0 ft / 0 m -19.63376˚ -43.96885˚ - 0 nm - Tancredo Neves
BBC NDB - 21,300 ft / 6,492 m -21.26700˚ -43.76417˚ 98 nm 98 nm 173° / 173° BARBACENA NDB
O SBRJ APT - 0 ft / 0 m -22.91046˚ -43.16313˚ 104 nm 202 nm 161° / 161° Santos-Dumont

Altitude Profile

Advertisement - Login to hide

Weather


0- 5 10 15 20 25 30 35+ Temperature / ° C

Clouds and Precipitation
Forecast for 2018-05-25 12:00 UTC. Updated 2 hours ago

Ground ~20,000 ft ~40,000 ft Winds

SBCF

Details ICAO SBCF (CNF)
Name Tancredo Neves
Region Brazil
Timezone America/Sao_Paulo (UTC-3.0)
Stats Elevation 2,715 ft / 828 m (AMSL)
Location -19.633758° -43.968854°
Runways 1
Magnetic Variation 22.845° W

METAR

SBCF 251300Z 05005KT 9999 SCT022 20/13 Q1025

Decode

TAF

TAF SBCF 251000Z 2512/2612 09010KT 9999 BKN025 TX24/2517Z TN14/2609Z BECMG 2516/2517 SCT030 BECMG 2520/2522 11008KT CAVOK BECMG 2601/2602 13005KT BECMG 2609/2610 12007KT RMK PEJ

Decode

Departure Runways

ID Width Length Bearing (true) Bearing (mag) Surface Threshold Offset Overrun Length
16 148 ft / 45 m 9,872 ft / 3,009 m 138.97° 161.81° Asphalt 0 ft / 0 m 203 ft / 62 m
34 148 ft / 45 m 9,872 ft / 3,009 m 318.96° 341.80° Asphalt 0 ft / 0 m 203 ft / 62 m

SBRJ

Details ICAO SBRJ (SDU)
Name Santos-Dumont
Region Brazil
Timezone Unknown (UTC+0.0)
Stats Elevation 11 ft / 3 m (AMSL)
Location -22.910460° -43.163133°
Runways 2
Magnetic Variation 22.826° W

METAR

SBRJ 251300Z 02006KT 3000 BR SCT020 24/21 Q1024

Decode

TAF

TAF SBRJ 250830Z 2512/2524 02005KT 8000 SCT020TX25/2517Z TN21/2524Z BECMG 2514/2516 14010KT TEMPO 2516/2518 6000 RA BKN020 BECMG 2521/2523 17010KT BKN030 RMK PFV

Decode

Destination Runways

ID Width Length Bearing (true) Bearing (mag) Surface Threshold Offset Overrun Length
02L 98 ft / 30 m 4,154 ft / 1,266 m 358.02° 20.85° Asphalt 0 ft / 0 m 80 ft / 24 m
02R 138 ft / 42 m 4,361 ft / 1,329 m 358.01° 20.84° Asphalt 0 ft / 0 m 80 ft / 24 m
20L 138 ft / 42 m 4,361 ft / 1,329 m 178.01° 200.84° Asphalt 0 ft / 0 m 80 ft / 24 m
20R 98 ft / 30 m 4,154 ft / 1,266 m 178.02° 200.85° Asphalt 0 ft / 0 m 95 ft / 29 m

Approach Navaids

Runway Type Ident Frequency Range Bearing (true) Bearing (mag) Slope Elevation
20L Localiser IRJ 111.10 MHz 18 nm / 33 km 172.42° 195.25° - 11 ft / 3 m (AMSL)

Popular Alternatives